sensor_id;sensor_type;location;lat;lon;timestamp;P1;durP1;ratioP1;P2;durP2;ratioP2
38693;SDS011;24447;43.460;25.744;2022-11-11T00:01:13;39.67;;;15.60;;
38693;SDS011;24447;43.460;25.744;2022-11-11T00:03:40;40.97;;;15.95;;
38693;SDS011;24447;43.460;25.744;2022-11-11T00:06:13;41.38;;;17.98;;
38693;SDS011;24447;43.460;25.744;2022-11-11T00:08:40;38.53;;;15.70;;
38693;SDS011;24447;43.460;25.744;2022-11-11T00:11:07;40.80;;;16.52;;
38693;SDS011;24447;43.460;25.744;2022-11-11T00:13:35;33.13;;;13.40;;
38693;SDS011;24447;43.460;25.744;2022-11-11T00:16:05;33.25;;;16.20;;
38693;SDS011;24447;43.460;25.744;2022-11-11T00:18:33;35.63;;;15.00;;
38693;SDS011;24447;43.460;25.744;2022-11-11T00:21:18;34.45;;;14.68;;
38693;SDS011;24447;43.460;25.744;2022-11-11T00:24:07;36.67;;;16.75;;
38693;SDS011;24447;43.460;25.744;2022-11-11T00:27:06;33.10;;;13.50;;
38693;SDS011;24447;43.460;25.744;2022-11-11T00:29:33;31.33;;;14.40;;
38693;SDS011;24447;43.460;25.744;2022-11-11T00:31:59;42.75;;;16.75;;
38693;SDS011;24447;43.460;25.744;2022-11-11T00:34:43;39.55;;;17.10;;
38693;SDS011;24447;43.460;25.744;2022-11-11T00:37:29;39.20;;;16.17;;
38693;SDS011;24447;43.460;25.744;2022-11-11T00:39:57;40.47;;;17.73;;
38693;SDS011;24447;43.460;25.744;2022-11-11T00:42:23;38.97;;;17.75;;
38693;SDS011;24447;43.460;25.744;2022-11-11T00:44:49;42.25;;;20.08;;
38693;SDS011;24447;43.460;25.744;2022-11-11T00:47:15;37.80;;;16.95;;
38693;SDS011;24447;43.460;25.744;2022-11-11T00:49:59;46.28;;;17.17;;
38693;SDS011;24447;43.460;25.744;2022-11-11T00:52:44;45.03;;;18.40;;
38693;SDS011;24447;43.460;25.744;2022-11-11T00:55:11;34.88;;;15.15;;
38693;SDS011;24447;43.460;25.744;2022-11-11T00:57:38;40.13;;;18.45;;
38693;SDS011;24447;43.460;25.744;2022-11-11T01:00:04;30.67;;;15.85;;
38693;SDS011;24447;43.460;25.744;2022-11-11T01:02:30;42.72;;;16.25;;
38693;SDS011;24447;43.460;25.744;2022-11-11T01:04:56;34.03;;;14.20;;
38693;SDS011;24447;43.460;25.744;2022-11-11T01:07:22;42.75;;;17.20;;
38693;SDS011;24447;43.460;25.744;2022-11-11T01:09:48;35.20;;;14.55;;
38693;SDS011;24447;43.460;25.744;2022-11-11T01:12:14;38.17;;;16.48;;
38693;SDS011;24447;43.460;25.744;2022-11-11T01:14:40;35.67;;;16.35;;
38693;SDS011;24447;43.460;25.744;2022-11-11T01:17:06;34.83;;;15.90;;
38693;SDS011;24447;43.460;25.744;2022-11-11T01:19:33;45.58;;;19.38;;
38693;SDS011;24447;43.460;25.744;2022-11-11T01:22:00;37.90;;;16.00;;
38693;SDS011;24447;43.460;25.744;2022-11-11T01:24:26;39.97;;;16.35;;
38693;SDS011;24447;43.460;25.744;2022-11-11T01:26:52;39.53;;;16.63;;
38693;SDS011;24447;43.460;25.744;2022-11-11T01:29:18;39.92;;;17.63;;
38693;SDS011;24447;43.460;25.744;2022-11-11T01:31:44;47.28;;;17.02;;
38693;SDS011;24447;43.460;25.744;2022-11-11T01:34:10;43.92;;;17.15;;
38693;SDS011;24447;43.460;25.744;2022-11-11T01:36:36;41.83;;;18.55;;
38693;SDS011;24447;43.460;25.744;2022-11-11T01:39:02;35.20;;;17.00;;
38693;SDS011;24447;43.460;25.744;2022-11-11T01:41:32;38.55;;;16.20;;
38693;SDS011;24447;43.460;25.744;2022-11-11T01:44:01;45.60;;;16.60;;
38693;SDS011;24447;43.460;25.744;2022-11-11T01:49:31;47.85;;;18.40;;
38693;SDS011;24447;43.460;25.744;2022-11-11T01:55:19;45.60;;;17.85;;
38693;SDS011;24447;43.460;25.744;2022-11-11T01:57:53;43.72;;;20.02;;
38693;SDS011;24447;43.460;25.744;2022-11-11T02:00:22;40.28;;;16.10;;
38693;SDS011;24447;43.460;25.744;2022-11-11T02:02:58;33.60;;;14.30;;
38693;SDS011;24447;43.460;25.744;2022-11-11T02:05:28;36.85;;;15.55;;
38693;SDS011;24447;43.460;25.744;2022-11-11T02:08:20;42.17;;;19.20;;
38693;SDS011;24447;43.460;25.744;2022-11-11T02:11:19;40.05;;;17.05;;
38693;SDS011;24447;43.460;25.744;2022-11-11T02:14:05;38.88;;;15.73;;
38693;SDS011;24447;43.460;25.744;2022-11-11T02:16:50;32.55;;;14.50;;
38693;SDS011;24447;43.460;25.744;2022-11-11T02:19:17;43.22;;;17.13;;
38693;SDS011;24447;43.460;25.744;2022-11-11T02:21:51;45.55;;;21.95;;
38693;SDS011;24447;43.460;25.744;2022-11-11T02:24:23;39.13;;;14.95;;
38693;SDS011;24447;43.460;25.744;2022-11-11T02:26:50;36.70;;;15.38;;
38693;SDS011;24447;43.460;25.744;2022-11-11T02:29:17;37.40;;;15.98;;
38693;SDS011;24447;43.460;25.744;2022-11-11T02:31:44;34.40;;;15.20;;
38693;SDS011;24447;43.460;25.744;2022-11-11T02:34:10;40.13;;;14.57;;
38693;SDS011;24447;43.460;25.744;2022-11-11T02:36:36;84.03;;;28.05;;
38693;SDS011;24447;43.460;25.744;2022-11-11T02:39:02;48.25;;;18.88;;
38693;SDS011;24447;43.460;25.744;2022-11-11T02:41:28;27.70;;;11.93;;
38693;SDS011;24447;43.460;25.744;2022-11-11T02:44:13;42.80;;;21.42;;
38693;SDS011;24447;43.460;25.744;2022-11-11T02:46:39;37.03;;;15.70;;
38693;SDS011;24447;43.460;25.744;2022-11-11T02:49:05;39.22;;;14.82;;
38693;SDS011;24447;43.460;25.744;2022-11-11T02:51:31;43.35;;;16.27;;
38693;SDS011;24447;43.460;25.744;2022-11-11T02:53:57;40.42;;;17.30;;
38693;SDS011;24447;43.460;25.744;2022-11-11T02:56:27;39.10;;;16.15;;
38693;SDS011;24447;43.460;25.744;2022-11-11T02:59:11;35.78;;;14.77;;
38693;SDS011;24447;43.460;25.744;2022-11-11T03:01:38;41.53;;;17.92;;
38693;SDS011;24447;43.460;25.744;2022-11-11T03:04:04;34.22;;;15.10;;
38693;SDS011;24447;43.460;25.744;2022-11-11T03:06:30;38.45;;;16.92;;
38693;SDS011;24447;43.460;25.744;2022-11-11T03:08:56;35.20;;;16.02;;
38693;SDS011;24447;43.460;25.744;2022-11-11T03:11:22;32.92;;;16.05;;
38693;SDS011;24447;43.460;25.744;2022-11-11T03:13:54;51.67;;;22.75;;
38693;SDS011;24447;43.460;25.744;2022-11-11T03:16:21;43.15;;;19.58;;
38693;SDS011;24447;43.460;25.744;2022-11-11T03:19:06;43.42;;;17.77;;
38693;SDS011;24447;43.460;25.744;2022-11-11T03:21:32;45.28;;;17.65;;
38693;SDS011;24447;43.460;25.744;2022-11-11T03:23:58;35.45;;;15.50;;
38693;SDS011;24447;43.460;25.744;2022-11-11T03:26:24;40.28;;;17.02;;
38693;SDS011;24447;43.460;25.744;2022-11-11T03:28:49;44.38;;;16.70;;
38693;SDS011;24447;43.460;25.744;2022-11-11T03:31:15;44.80;;;17.08;;
38693;SDS011;24447;43.460;25.744;2022-11-11T03:33:42;41.50;;;20.52;;
38693;SDS011;24447;43.460;25.744;2022-11-11T03:36:08;54.55;;;18.15;;
38693;SDS011;24447;43.460;25.744;2022-11-11T03:38:34;36.17;;;15.27;;
38693;SDS011;24447;43.460;25.744;2022-11-11T03:41:00;39.58;;;16.10;;
38693;SDS011;24447;43.460;25.744;2022-11-11T03:43:27;36.47;;;14.07;;
38693;SDS011;24447;43.460;25.744;2022-11-11T03:45:54;45.95;;;18.92;;
38693;SDS011;24447;43.460;25.744;2022-11-11T03:48:21;40.70;;;16.60;;
38693;SDS011;24447;43.460;25.744;2022-11-11T03:50:48;37.58;;;14.65;;
38693;SDS011;24447;43.460;25.744;2022-11-11T03:53:14;37.13;;;14.07;;
38693;SDS011;24447;43.460;25.744;2022-11-11T03:55:41;35.30;;;12.38;;
38693;SDS011;24447;43.460;25.744;2022-11-11T03:58:07;37.72;;;15.63;;
38693;SDS011;24447;43.460;25.744;2022-11-11T04:00:33;36.80;;;15.70;;
38693;SDS011;24447;43.460;25.744;2022-11-11T04:03:00;43.35;;;17.90;;
38693;SDS011;24447;43.460;25.744;2022-11-11T04:05:54;39.53;;;18.00;;
38693;SDS011;24447;43.460;25.744;2022-11-11T04:08:39;39.35;;;16.95;;
38693;SDS011;24447;43.460;25.744;2022-11-11T04:11:25;43.15;;;14.95;;
38693;SDS011;24447;43.460;25.744;2022-11-11T04:13:52;34.88;;;15.95;;
38693;SDS011;24447;43.460;25.744;2022-11-11T04:16:39;35.63;;;15.68;;
38693;SDS011;24447;43.460;25.744;2022-11-11T04:19:04;38.65;;;16.92;;
38693;SDS011;24447;43.460;25.744;2022-11-11T04:21:49;42.63;;;16.55;;
38693;SDS011;24447;43.460;25.744;2022-11-11T04:24:15;51.15;;;17.38;;
38693;SDS011;24447;43.460;25.744;2022-11-11T04:27:02;34.97;;;15.32;;
38693;SDS011;24447;43.460;25.744;2022-11-11T04:29:29;42.65;;;18.88;;
38693;SDS011;24447;43.460;25.744;2022-11-11T04:31:59;47.08;;;18.88;;
38693;SDS011;24447;43.460;25.744;2022-11-11T04:34:49;43.72;;;15.77;;
38693;SDS011;24447;43.460;25.744;2022-11-11T04:37:16;36.65;;;16.55;;
38693;SDS011;24447;43.460;25.744;2022-11-11T04:39:42;42.28;;;16.27;;
38693;SDS011;24447;43.460;25.744;2022-11-11T04:42:27;46.38;;;17.27;;
38693;SDS011;24447;43.460;25.744;2022-11-11T04:44:54;41.58;;;16.45;;
38693;SDS011;24447;43.460;25.744;2022-11-11T04:50:24;43.45;;;18.38;;
38693;SDS011;24447;43.460;25.744;2022-11-11T04:52:52;40.47;;;17.55;;
38693;SDS011;24447;43.460;25.744;2022-11-11T04:55:18;50.97;;;21.20;;
38693;SDS011;24447;43.460;25.744;2022-11-11T04:58:02;45.83;;;18.52;;
38693;SDS011;24447;43.460;25.744;2022-11-11T05:00:28;46.78;;;25.25;;
38693;SDS011;24447;43.460;25.744;2022-11-11T05:02:55;52.80;;;21.95;;
38693;SDS011;24447;43.460;25.744;2022-11-11T05:05:40;45.33;;;19.17;;
38693;SDS011;24447;43.460;25.744;2022-11-11T05:08:29;41.58;;;17.70;;
38693;SDS011;24447;43.460;25.744;2022-11-11T05:11:14;40.55;;;17.02;;
38693;SDS011;24447;43.460;25.744;2022-11-11T05:13:40;52.35;;;24.05;;
38693;SDS011;24447;43.460;25.744;2022-11-11T05:16:26;47.30;;;19.98;;
38693;SDS011;24447;43.460;25.744;2022-11-11T05:19:12;39.60;;;17.02;;
38693;SDS011;24447;43.460;25.744;2022-11-11T05:22:04;42.70;;;14.98;;
38693;SDS011;24447;43.460;25.744;2022-11-11T05:24:33;41.65;;;17.13;;
38693;SDS011;24447;43.460;25.744;2022-11-11T05:27:18;34.17;;;14.48;;
38693;SDS011;24447;43.460;25.744;2022-11-11T05:29:45;41.67;;;19.25;;
38693;SDS011;24447;43.460;25.744;2022-11-11T05:32:15;45.85;;;19.60;;
38693;SDS011;24447;43.460;25.744;2022-11-11T05:34:42;41.20;;;18.13;;
38693;SDS011;24447;43.460;25.744;2022-11-11T05:37:08;57.80;;;27.40;;
38693;SDS011;24447;43.460;25.744;2022-11-11T05:39:34;68.47;;;30.98;;
38693;SDS011;24447;43.460;25.744;2022-11-11T05:42:00;48.35;;;22.25;;
38693;SDS011;24447;43.460;25.744;2022-11-11T05:44:26;54.83;;;22.65;;
38693;SDS011;24447;43.460;25.744;2022-11-11T05:46:52;57.17;;;22.50;;
38693;SDS011;24447;43.460;25.744;2022-11-11T05:49:18;47.83;;;20.35;;
38693;SDS011;24447;43.460;25.744;2022-11-11T05:51:44;41.15;;;18.83;;
38693;SDS011;24447;43.460;25.744;2022-11-11T05:54:11;51.03;;;20.67;;
38693;SDS011;24447;43.460;25.744;2022-11-11T05:56:37;47.55;;;20.17;;
38693;SDS011;24447;43.460;25.744;2022-11-11T05:59:04;38.00;;;17.50;;
38693;SDS011;24447;43.460;25.744;2022-11-11T06:01:30;43.33;;;19.13;;
38693;SDS011;24447;43.460;25.744;2022-11-11T06:03:56;40.53;;;18.80;;
38693;SDS011;24447;43.460;25.744;2022-11-11T06:06:22;43.40;;;18.05;;
38693;SDS011;24447;43.460;25.744;2022-11-11T06:08:48;40.78;;;18.65;;
38693;SDS011;24447;43.460;25.744;2022-11-11T06:11:14;45.38;;;19.63;;
38693;SDS011;24447;43.460;25.744;2022-11-11T06:13:40;42.38;;;17.88;;
38693;SDS011;24447;43.460;25.744;2022-11-11T06:16:06;44.28;;;19.70;;
38693;SDS011;24447;43.460;25.744;2022-11-11T06:18:32;45.00;;;18.73;;
38693;SDS011;24447;43.460;25.744;2022-11-11T06:20:58;42.30;;;18.25;;
38693;SDS011;24447;43.460;25.744;2022-11-11T06:23:25;50.25;;;22.50;;
38693;SDS011;24447;43.460;25.744;2022-11-11T06:25:52;52.90;;;25.52;;
38693;SDS011;24447;43.460;25.744;2022-11-11T06:28:41;52.58;;;25.02;;
38693;SDS011;24447;43.460;25.744;2022-11-11T06:31:09;54.15;;;29.48;;
38693;SDS011;24447;43.460;25.744;2022-11-11T06:33:36;65.90;;;33.90;;
38693;SDS011;24447;43.460;25.744;2022-11-11T06:36:03;66.32;;;34.55;;
38693;SDS011;24447;43.460;25.744;2022-11-11T06:38:30;69.53;;;33.65;;
38693;SDS011;24447;43.460;25.744;2022-11-11T06:40:56;57.70;;;28.48;;
38693;SDS011;24447;43.460;25.744;2022-11-11T06:43:22;48.13;;;21.98;;
38693;SDS011;24447;43.460;25.744;2022-11-11T06:45:49;54.05;;;23.00;;
38693;SDS011;24447;43.460;25.744;2022-11-11T06:48:16;62.92;;;28.30;;
38693;SDS011;24447;43.460;25.744;2022-11-11T06:50:42;54.92;;;23.10;;
38693;SDS011;24447;43.460;25.744;2022-11-11T06:53:09;59.35;;;24.60;;
38693;SDS011;24447;43.460;25.744;2022-11-11T06:55:39;56.22;;;26.40;;
38693;SDS011;24447;43.460;25.744;2022-11-11T06:58:09;53.05;;;23.83;;
38693;SDS011;24447;43.460;25.744;2022-11-11T07:00:36;66.18;;;27.38;;
38693;SDS011;24447;43.460;25.744;2022-11-11T07:03:03;52.40;;;25.75;;
38693;SDS011;24447;43.460;25.744;2022-11-11T07:05:31;52.05;;;23.92;;
38693;SDS011;24447;43.460;25.744;2022-11-11T07:08:00;52.33;;;24.75;;
38693;SDS011;24447;43.460;25.744;2022-11-11T07:10:27;53.60;;;25.38;;
38693;SDS011;24447;43.460;25.744;2022-11-11T07:12:52;54.90;;;28.02;;
38693;SDS011;24447;43.460;25.744;2022-11-11T07:15:18;67.00;;;33.90;;
38693;SDS011;24447;43.460;25.744;2022-11-11T07:17:44;63.28;;;29.63;;
38693;SDS011;24447;43.460;25.744;2022-11-11T07:20:10;67.70;;;31.50;;
38693;SDS011;24447;43.460;25.744;2022-11-11T07:22:36;61.15;;;30.33;;
38693;SDS011;24447;43.460;25.744;2022-11-11T07:25:02;60.00;;;29.90;;
38693;SDS011;24447;43.460;25.744;2022-11-11T07:27:29;68.18;;;33.22;;
38693;SDS011;24447;43.460;25.744;2022-11-11T07:29:55;64.88;;;30.58;;
38693;SDS011;24447;43.460;25.744;2022-11-11T07:32:20;84.85;;;35.88;;
38693;SDS011;24447;43.460;25.744;2022-11-11T07:34:46;57.22;;;27.40;;
38693;SDS011;24447;43.460;25.744;2022-11-11T07:37:14;56.00;;;30.45;;
38693;SDS011;24447;43.460;25.744;2022-11-11T07:39:40;55.05;;;29.77;;
38693;SDS011;24447;43.460;25.744;2022-11-11T07:42:06;62.78;;;29.48;;
38693;SDS011;24447;43.460;25.744;2022-11-11T07:44:32;63.33;;;30.00;;
38693;SDS011;24447;43.460;25.744;2022-11-11T07:46:58;59.15;;;31.00;;
38693;SDS011;24447;43.460;25.744;2022-11-11T07:49:24;66.53;;;31.25;;
38693;SDS011;24447;43.460;25.744;2022-11-11T07:51:49;66.55;;;32.08;;
38693;SDS011;24447;43.460;25.744;2022-11-11T07:54:15;61.00;;;32.65;;
38693;SDS011;24447;43.460;25.744;2022-11-11T07:56:41;59.65;;;30.83;;
38693;SDS011;24447;43.460;25.744;2022-11-11T07:59:07;62.20;;;31.33;;
38693;SDS011;24447;43.460;25.744;2022-11-11T08:01:33;71.47;;;32.97;;
38693;SDS011;24447;43.460;25.744;2022-11-11T08:04:00;69.82;;;30.73;;
38693;SDS011;24447;43.460;25.744;2022-11-11T08:06:26;72.70;;;34.30;;
38693;SDS011;24447;43.460;25.744;2022-11-11T08:08:52;77.22;;;36.92;;
38693;SDS011;24447;43.460;25.744;2022-11-11T08:11:18;75.45;;;36.38;;
38693;SDS011;24447;43.460;25.744;2022-11-11T08:14:04;80.30;;;36.47;;
38693;SDS011;24447;43.460;25.744;2022-11-11T08:16:30;73.07;;;36.60;;
38693;SDS011;24447;43.460;25.744;2022-11-11T08:18:56;66.88;;;36.15;;
38693;SDS011;24447;43.460;25.744;2022-11-11T08:21:22;67.22;;;33.90;;
38693;SDS011;24447;43.460;25.744;2022-11-11T08:23:49;63.97;;;30.50;;
38693;SDS011;24447;43.460;25.744;2022-11-11T08:26:16;87.60;;;44.58;;
38693;SDS011;24447;43.460;25.744;2022-11-11T08:28:43;140.85;;;51.60;;
38693;SDS011;24447;43.460;25.744;2022-11-11T08:31:09;109.93;;;43.55;;
38693;SDS011;24447;43.460;25.744;2022-11-11T08:33:35;95.65;;;41.88;;
38693;SDS011;24447;43.460;25.744;2022-11-11T08:36:01;81.63;;;36.72;;
38693;SDS011;24447;43.460;25.744;2022-11-11T08:38:29;75.78;;;37.00;;
38693;SDS011;24447;43.460;25.744;2022-11-11T08:40:58;81.22;;;42.13;;
38693;SDS011;24447;43.460;25.744;2022-11-11T08:43:25;91.72;;;39.88;;
38693;SDS011;24447;43.460;25.744;2022-11-11T08:45:51;98.47;;;42.17;;
38693;SDS011;24447;43.460;25.744;2022-11-11T08:48:18;86.60;;;41.25;;
38693;SDS011;24447;43.460;25.744;2022-11-11T08:50:44;78.57;;;41.00;;
38693;SDS011;24447;43.460;25.744;2022-11-11T08:53:10;81.85;;;39.35;;
38693;SDS011;24447;43.460;25.744;2022-11-11T08:55:36;86.05;;;38.72;;
38693;SDS011;24447;43.460;25.744;2022-11-11T08:58:03;81.72;;;39.63;;
38693;SDS011;24447;43.460;25.744;2022-11-11T09:00:31;99.15;;;47.78;;
38693;SDS011;24447;43.460;25.744;2022-11-11T09:03:02;88.75;;;46.63;;
38693;SDS011;24447;43.460;25.744;2022-11-11T09:05:29;87.47;;;44.15;;
38693;SDS011;24447;43.460;25.744;2022-11-11T09:07:55;82.50;;;42.63;;
38693;SDS011;24447;43.460;25.744;2022-11-11T09:10:21;92.78;;;44.78;;
38693;SDS011;24447;43.460;25.744;2022-11-11T09:12:47;88.40;;;43.95;;
38693;SDS011;24447;43.460;25.744;2022-11-11T09:15:12;90.53;;;39.03;;
38693;SDS011;24447;43.460;25.744;2022-11-11T09:17:38;86.85;;;44.28;;
38693;SDS011;24447;43.460;25.744;2022-11-11T09:20:11;88.35;;;38.85;;
38693;SDS011;24447;43.460;25.744;2022-11-11T09:22:55;82.50;;;40.97;;
38693;SDS011;24447;43.460;25.744;2022-11-11T09:25:21;80.90;;;36.63;;
38693;SDS011;24447;43.460;25.744;2022-11-11T09:27:54;81.53;;;40.25;;
38693;SDS011;24447;43.460;25.744;2022-11-11T09:30:25;75.15;;;37.75;;
38693;SDS011;24447;43.460;25.744;2022-11-11T09:32:52;82.10;;;41.38;;
38693;SDS011;24447;43.460;25.744;2022-11-11T09:35:18;82.15;;;45.83;;
38693;SDS011;24447;43.460;25.744;2022-11-11T09:37:57;94.22;;;49.20;;
38693;SDS011;24447;43.460;25.744;2022-11-11T09:40:25;75.15;;;38.95;;
38693;SDS011;24447;43.460;25.744;2022-11-11T09:42:58;92.35;;;47.78;;
38693;SDS011;24447;43.460;25.744;2022-11-11T09:45:40;78.95;;;37.97;;
38693;SDS011;24447;43.460;25.744;2022-11-11T09:50:51;56.83;;;27.95;;
38693;SDS011;24447;43.460;25.744;2022-11-11T09:53:21;63.30;;;30.48;;
38693;SDS011;24447;43.460;25.744;2022-11-11T09:55:54;54.40;;;28.75;;
38693;SDS011;24447;43.460;25.744;2022-11-11T09:58:24;57.83;;;28.58;;
38693;SDS011;24447;43.460;25.744;2022-11-11T10:01:01;113.75;;;64.65;;
38693;SDS011;24447;43.460;25.744;2022-11-11T10:03:32;68.25;;;35.47;;
38693;SDS011;24447;43.460;25.744;2022-11-11T10:08:57;71.93;;;36.50;;
38693;SDS011;24447;43.460;25.744;2022-11-11T10:12:10;65.85;;;38.70;;
38693;SDS011;24447;43.460;25.744;2022-11-11T10:14:31;70.10;;;37.55;;
38693;SDS011;24447;43.460;25.744;2022-11-11T10:22:37;57.38;;;29.75;;
38693;SDS011;24447;43.460;25.744;2022-11-11T10:27:44;51.72;;;26.60;;
38693;SDS011;24447;43.460;25.744;2022-11-11T10:30:33;59.42;;;27.40;;
38693;SDS011;24447;43.460;25.744;2022-11-11T10:33:02;70.35;;;26.70;;
38693;SDS011;24447;43.460;25.744;2022-11-11T10:35:31;63.67;;;30.95;;
38693;SDS011;24447;43.460;25.744;2022-11-11T10:38:00;62.75;;;34.28;;
38693;SDS011;24447;43.460;25.744;2022-11-11T10:40:33;55.33;;;28.95;;
38693;SDS011;24447;43.460;25.744;2022-11-11T10:43:04;50.20;;;24.35;;
38693;SDS011;24447;43.460;25.744;2022-11-11T10:51:12;52.30;;;29.35;;
38693;SDS011;24447;43.460;25.744;2022-11-11T10:59:18;50.83;;;26.20;;
38693;SDS011;24447;43.460;25.744;2022-11-11T11:01:49;48.70;;;26.87;;
38693;SDS011;24447;43.460;25.744;2022-11-11T11:04:21;62.33;;;29.02;;
38693;SDS011;24447;43.460;25.744;2022-11-11T11:06:51;58.13;;;30.75;;
38693;SDS011;24447;43.460;25.744;2022-11-11T11:09:25;66.68;;;34.88;;
38693;SDS011;24447;43.460;25.744;2022-11-11T11:12:14;64.45;;;32.70;;
38693;SDS011;24447;43.460;25.744;2022-11-11T11:14:47;76.25;;;40.63;;
38693;SDS011;24447;43.460;25.744;2022-11-11T11:17:16;66.25;;;38.75;;
38693;SDS011;24447;43.460;25.744;2022-11-11T11:20:05;69.43;;;36.47;;
38693;SDS011;24447;43.460;25.744;2022-11-11T11:22:47;51.67;;;28.25;;
38693;SDS011;24447;43.460;25.744;2022-11-11T11:25:18;44.17;;;23.73;;
38693;SDS011;24447;43.460;25.744;2022-11-11T11:27:45;44.88;;;24.02;;
38693;SDS011;24447;43.460;25.744;2022-11-11T11:30:19;46.83;;;23.88;;
38693;SDS011;24447;43.460;25.744;2022-11-11T11:33:06;45.50;;;21.88;;
38693;SDS011;24447;43.460;25.744;2022-11-11T11:38:06;47.15;;;22.92;;
38693;SDS011;24447;43.460;25.744;2022-11-11T11:43:32;40.38;;;20.73;;
38693;SDS011;24447;43.460;25.744;2022-11-11T11:46:00;38.03;;;19.35;;
38693;SDS011;24447;43.460;25.744;2022-11-11T11:56:45;37.90;;;18.50;;
38693;SDS011;24447;43.460;25.744;2022-11-11T11:59:27;42.75;;;23.48;;
38693;SDS011;24447;43.460;25.744;2022-11-11T12:02:00;49.55;;;23.38;;
38693;SDS011;24447;43.460;25.744;2022-11-11T12:10:05;35.95;;;17.58;;
38693;SDS011;24447;43.460;25.744;2022-11-11T12:20:36;16.98;;;7.13;;
38693;SDS011;24447;43.460;25.744;2022-11-11T12:26:04;7.65;;;3.50;;
38693;SDS011;24447;43.460;25.744;2022-11-11T12:36:52;4.50;;;2.30;;
38693;SDS011;24447;43.460;25.744;2022-11-11T12:45:17;11.38;;;4.75;;
38693;SDS011;24447;43.460;25.744;2022-11-11T12:50:51;15.48;;;6.38;;
38693;SDS011;24447;43.460;25.744;2022-11-11T12:56:23;8.75;;;4.10;;
38693;SDS011;24447;43.460;25.744;2022-11-11T12:59:02;7.03;;;3.95;;
38693;SDS011;24447;43.460;25.744;2022-11-11T13:01:37;9.63;;;4.47;;
38693;SDS011;24447;43.460;25.744;2022-11-11T13:04:18;10.15;;;4.30;;
38693;SDS011;24447;43.460;25.744;2022-11-11T13:12:48;13.95;;;5.32;;
38693;SDS011;24447;43.460;25.744;2022-11-11T13:17:50;21.27;;;7.90;;
38693;SDS011;24447;43.460;25.744;2022-11-11T13:20:39;11.40;;;5.03;;
38693;SDS011;24447;43.460;25.744;2022-11-11T13:23:09;22.50;;;8.38;;
38693;SDS011;24447;43.460;25.744;2022-11-11T13:25:36;29.27;;;14.68;;
38693;SDS011;24447;43.460;25.744;2022-11-11T13:28:16;25.13;;;10.00;;
38693;SDS011;24447;43.460;25.744;2022-11-11T13:31:01;12.90;;;6.60;;
38693;SDS011;24447;43.460;25.744;2022-11-11T13:33:39;24.42;;;7.97;;
38693;SDS011;24447;43.460;25.744;2022-11-11T13:36:08;22.27;;;7.55;;
38693;SDS011;24447;43.460;25.744;2022-11-11T13:38:46;16.50;;;6.40;;
38693;SDS011;24447;43.460;25.744;2022-11-11T13:41:50;11.90;;;5.38;;
38693;SDS011;24447;43.460;25.744;2022-11-11T13:44:07;10.23;;;4.60;;
38693;SDS011;24447;43.460;25.744;2022-11-11T13:46:38;13.77;;;5.80;;
38693;SDS011;24447;43.460;25.744;2022-11-11T13:49:22;9.10;;;3.95;;
38693;SDS011;24447;43.460;25.744;2022-11-11T13:51:56;8.68;;;4.10;;
38693;SDS011;24447;43.460;25.744;2022-11-11T13:54:39;8.52;;;4.32;;
38693;SDS011;24447;43.460;25.744;2022-11-11T13:57:08;6.47;;;3.35;;
38693;SDS011;24447;43.460;25.744;2022-11-11T13:59:48;10.52;;;5.53;;
38693;SDS011;24447;43.460;25.744;2022-11-11T14:13:10;6.13;;;3.50;;
38693;SDS011;24447;43.460;25.744;2022-11-11T14:20:45;11.27;;;5.07;;
38693;SDS011;24447;43.460;25.744;2022-11-11T14:25:43;10.95;;;6.30;;
38693;SDS011;24447;43.460;25.744;2022-11-11T14:30:52;17.35;;;5.80;;
38693;SDS011;24447;43.460;25.744;2022-11-11T14:36:50;11.52;;;5.15;;
38693;SDS011;24447;43.460;25.744;2022-11-11T14:41:58;12.23;;;5.70;;
38693;SDS011;24447;43.460;25.744;2022-11-11T14:58:04;8.45;;;4.30;;
38693;SDS011;24447;43.460;25.744;2022-11-11T15:00:54;10.30;;;5.30;;
38693;SDS011;24447;43.460;25.744;2022-11-11T15:06:21;14.82;;;6.30;;
38693;SDS011;24447;43.460;25.744;2022-11-11T15:14:08;23.75;;;9.43;;
38693;SDS011;24447;43.460;25.744;2022-11-11T15:36:36;12.38;;;5.07;;
38693;SDS011;24447;43.460;25.744;2022-11-11T15:39:09;19.48;;;6.88;;
38693;SDS011;24447;43.460;25.744;2022-11-11T15:41:39;13.40;;;5.35;;
38693;SDS011;24447;43.460;25.744;2022-11-11T15:44:40;14.50;;;5.93;;
38693;SDS011;24447;43.460;25.744;2022-11-11T15:46:59;24.90;;;13.82;;
38693;SDS011;24447;43.460;25.744;2022-11-11T15:52:11;34.03;;;15.95;;
38693;SDS011;24447;43.460;25.744;2022-11-11T15:54:52;25.33;;;13.35;;
38693;SDS011;24447;43.460;25.744;2022-11-11T15:57:23;23.55;;;12.95;;
38693;SDS011;24447;43.460;25.744;2022-11-11T15:59:50;21.40;;;9.52;;
38693;SDS011;24447;43.460;25.744;2022-11-11T16:02:17;16.60;;;7.85;;
38693;SDS011;24447;43.460;25.744;2022-11-11T16:04:49;19.77;;;8.32;;
38693;SDS011;24447;43.460;25.744;2022-11-11T16:07:19;12.35;;;4.75;;
38693;SDS011;24447;43.460;25.744;2022-11-11T16:09:46;19.10;;;6.50;;
38693;SDS011;24447;43.460;25.744;2022-11-11T16:12:12;15.20;;;6.82;;
38693;SDS011;24447;43.460;25.744;2022-11-11T16:14:43;12.15;;;6.32;;
38693;SDS011;24447;43.460;25.744;2022-11-11T16:17:12;11.70;;;5.22;;
38693;SDS011;24447;43.460;25.744;2022-11-11T16:19:39;18.02;;;5.80;;
38693;SDS011;24447;43.460;25.744;2022-11-11T16:22:15;15.45;;;6.32;;
38693;SDS011;24447;43.460;25.744;2022-11-11T16:24:44;13.98;;;5.65;;
38693;SDS011;24447;43.460;25.744;2022-11-11T16:27:18;14.95;;;6.55;;
38693;SDS011;24447;43.460;25.744;2022-11-11T16:29:45;17.58;;;5.35;;
38693;SDS011;24447;43.460;25.744;2022-11-11T16:34:52;13.13;;;5.68;;
38693;SDS011;24447;43.460;25.744;2022-11-11T16:37:19;18.08;;;7.72;;
38693;SDS011;24447;43.460;25.744;2022-11-11T16:39:45;21.92;;;10.02;;
38693;SDS011;24447;43.460;25.744;2022-11-11T16:42:22;21.63;;;8.40;;
38693;SDS011;24447;43.460;25.744;2022-11-11T16:55:18;36.60;;;16.90;;
38693;SDS011;24447;43.460;25.744;2022-11-11T16:57:46;23.48;;;11.43;;
38693;SDS011;24447;43.460;25.744;2022-11-11T17:00:16;27.92;;;13.60;;
38693;SDS011;24447;43.460;25.744;2022-11-11T17:02:44;29.65;;;15.00;;
38693;SDS011;24447;43.460;25.744;2022-11-11T17:05:10;29.80;;;13.88;;
38693;SDS011;24447;43.460;25.744;2022-11-11T17:07:37;32.50;;;14.05;;
38693;SDS011;24447;43.460;25.744;2022-11-11T17:12:34;26.60;;;14.50;;
38693;SDS011;24447;43.460;25.744;2022-11-11T17:15:08;26.67;;;13.17;;
38693;SDS011;24447;43.460;25.744;2022-11-11T17:17:35;32.42;;;15.98;;
38693;SDS011;24447;43.460;25.744;2022-11-11T17:20:06;31.23;;;13.73;;
38693;SDS011;24447;43.460;25.744;2022-11-11T17:25:12;34.00;;;17.83;;
38693;SDS011;24447;43.460;25.744;2022-11-11T17:27:38;30.20;;;13.15;;
38693;SDS011;24447;43.460;25.744;2022-11-11T17:30:04;23.23;;;10.63;;
38693;SDS011;24447;43.460;25.744;2022-11-11T17:32:30;26.17;;;12.27;;
38693;SDS011;24447;43.460;25.744;2022-11-11T17:34:56;25.40;;;10.38;;